createdAt,value
2019-03-18T00:03:58.214Z,100266.79
2019-03-18T00:06:59.950Z,100260.05
2019-03-18T00:25:33.469Z,100235.53
2019-03-18T00:28:28.022Z,100237.31
2019-03-18T00:51:19.033Z,100243.86
2019-03-18T00:54:21.310Z,100245.31
2019-03-18T00:57:20.401Z,100243.64
2019-03-18T01:02:59.757Z,100251.19
2019-03-18T01:08:52.145Z,100236.54
2019-03-18T01:11:38.998Z,100241.56
2019-03-18T01:14:32.878Z,100251.28
2019-03-18T01:20:05.815Z,100246.86
2019-03-18T01:22:54.304Z,100229.77
2019-03-18T01:28:50.046Z,100239.08
2019-03-18T01:35:39.862Z,100227.05
2019-03-18T01:38:10.265Z,100228.59
2019-03-18T01:40:51.854Z,100226.96
2019-03-18T01:46:43.871Z,100239.94
2019-03-18T01:49:36.616Z,100237.00
2019-03-18T01:52:48.088Z,100227.28
2019-03-18T01:56:04.067Z,100224.03
2019-03-18T01:59:25.277Z,100221.05
2019-03-18T02:02:11.953Z,100224.21
2019-03-18T02:05:02.667Z,100216.03
2019-03-18T02:14:47.624Z,100224.66
2019-03-18T02:20:30.894Z,100230.50
2019-03-18T02:23:36.243Z,100234.89
2019-03-18T02:23:52.519Z,100228.65
2019-03-18T02:26:49.046Z,100228.28
2019-03-18T02:29:45.596Z,100222.95
2019-03-18T02:32:37.054Z,100230.27
2019-03-18T02:41:43.192Z,100228.48
2019-03-18T02:44:43.167Z,100226.03
2019-03-18T02:53:49.057Z,100239.81
2019-03-18T02:56:34.596Z,100230.55
2019-03-18T02:59:31.337Z,100232.09
2019-03-18T03:05:09.264Z,100221.52
2019-03-18T03:10:49.318Z,100230.78
2019-03-18T03:13:37.944Z,100241.39
2019-03-18T03:19:22.298Z,100251.95
2019-03-18T03:25:39.266Z,100245.56
2019-03-18T03:34:55.615Z,100248.48
2019-03-18T03:37:42.433Z,100245.33
2019-03-18T03:40:31.533Z,100244.95
2019-03-18T03:53:18.037Z,100241.96
2019-03-18T03:55:59.791Z,100229.94
2019-03-18T03:59:12.661Z,100229.03
2019-03-18T04:07:33.234Z,100211.30
2019-03-18T04:17:03.571Z,100226.78
2019-03-18T04:20:39.845Z,100219.60
2019-03-18T04:21:11.721Z,100223.80
2019-03-18T04:33:21.845Z,100248.28
2019-03-18T04:36:05.076Z,100240.72
2019-03-18T04:42:24.988Z,100261.58
2019-03-18T05:05:38.333Z,100283.81
2019-03-18T05:08:23.047Z,100290.60
2019-03-18T05:10:52.370Z,100293.88
2019-03-18T05:13:44.884Z,100287.59
2019-03-18T05:16:33.011Z,100296.37
2019-03-18T05:25:52.939Z,100305.13
2019-03-18T05:28:43.722Z,100305.24
2019-03-18T05:40:48.659Z,100309.66
2019-03-18T05:43:47.787Z,100306.91
2019-03-18T05:49:56.998Z,100309.34
2019-03-18T05:53:03.531Z,100295.45
2019-03-18T05:55:43.520Z,100308.81
2019-03-18T06:05:11.924Z,100312.44
2019-03-18T06:08:00.486Z,100323.03
2019-03-18T06:13:56.525Z,100313.42
2019-03-18T06:16:39.756Z,100316.95
2019-03-18T06:19:35.206Z,100314.78
2019-03-18T06:22:18.409Z,100307.55
2019-03-18T06:28:09.357Z,100300.63
2019-03-18T06:30:47.787Z,100318.48
2019-03-18T06:33:58.886Z,100310.20
2019-03-18T06:48:33.994Z,100312.27
2019-03-18T06:57:52.234Z,100310.84
2019-03-18T07:00:34.782Z,100315.37
2019-03-18T07:03:27.004Z,100309.13
2019-03-18T07:09:20.576Z,100309.23
2019-03-18T07:28:39.535Z,100313.47
2019-03-18T07:31:09.779Z,100322.05
2019-03-18T07:39:37.236Z,100308.20
2019-03-18T07:42:12.476Z,100320.61
2019-03-18T07:44:55.544Z,100310.78
2019-03-18T07:50:47.135Z,100314.33
2019-03-18T07:56:37.524Z,100312.16
2019-03-18T07:59:31.219Z,100321.27
2019-03-18T08:18:49.241Z,100323.79
2019-03-18T08:21:53.507Z,100323.09
2019-03-18T08:25:17.316Z,100334.50
2019-03-18T08:28:18.979Z,100331.17
2019-03-18T08:37:41.662Z,100336.06
2019-03-18T08:39:53.831Z,100344.64
2019-03-18T08:52:10.292Z,100346.25
2019-03-18T08:54:57.411Z,100363.17
2019-03-18T08:57:46.335Z,100366.15
2019-03-18T09:06:38.497Z,100363.38
2019-03-18T09:09:10.049Z,100366.30
2019-03-18T09:11:42.899Z,100376.55
2019-03-18T09:14:15.688Z,100353.30
2019-03-18T09:16:48.039Z,100363.64
2019-03-18T09:19:22.380Z,100370.42
2019-03-18T09:21:53.599Z,100371.17
2019-03-18T09:24:26.877Z,100396.45
2019-03-18T09:27:02.674Z,100391.88
2019-03-18T09:29:36.082Z,100387.09
2019-03-18T09:32:07.264Z,100393.44
2019-03-18T09:35:02.451Z,100396.08
2019-03-18T09:37:33.640Z,100400.48
2019-03-18T09:40:11.565Z,100404.25
2019-03-18T09:42:43.588Z,100404.32
2019-03-18T09:45:19.520Z,100403.85
2019-03-18T09:47:56.148Z,100412.44
2019-03-18T09:50:27.531Z,100404.71
2019-03-18T09:52:59.003Z,100412.72
2019-03-18T09:55:31.451Z,100415.52
2019-03-18T09:58:05.072Z,100436.42
2019-03-18T10:00:37.765Z,100430.94
2019-03-18T10:03:08.882Z,100438.02
2019-03-18T10:05:40.380Z,100440.06
2019-03-18T10:08:11.517Z,100448.51
2019-03-18T10:10:50.268Z,100442.95
2019-03-18T10:13:23.613Z,100441.22
2019-03-18T10:15:54.666Z,100449.52
2019-03-18T10:18:26.120Z,100447.07
2019-03-18T10:21:00.210Z,100443.27
2019-03-18T10:23:31.378Z,100451.61
2019-03-18T10:26:02.730Z,100451.21
2019-03-18T10:28:35.039Z,100449.47
2019-03-18T10:31:06.497Z,100451.42
2019-03-18T10:33:39.150Z,100454.08
2019-03-18T10:36:12.352Z,100465.53
2019-03-18T10:38:43.580Z,100471.55
2019-03-18T10:41:20.228Z,100474.56
2019-03-18T10:43:52.337Z,100479.97
2019-03-18T10:46:26.295Z,100489.95
2019-03-18T10:48:59.172Z,100476.05
2019-03-18T10:51:32.700Z,100475.36
2019-03-18T10:54:08.247Z,100475.30
2019-03-18T10:56:43.498Z,100476.07
2019-03-18T10:59:20.402Z,100484.77
2019-03-18T11:01:53.185Z,100467.06
2019-03-18T11:04:26.457Z,100470.47
2019-03-18T11:07:01.530Z,100476.71
2019-03-18T11:09:35.661Z,100480.27
2019-03-18T11:12:07.603Z,100482.53
2019-03-18T11:14:39.503Z,100480.34
2019-03-18T11:17:13.970Z,100502.95
2019-03-18T11:19:57.942Z,100492.19
2019-03-18T11:22:21.681Z,100485.87
2019-03-18T11:24:52.888Z,100481.45
2019-03-18T11:27:33.366Z,100493.49
2019-03-18T11:30:15.505Z,100490.78
2019-03-18T11:32:48.377Z,100487.42
2019-03-18T11:35:19.641Z,100485.72
2019-03-18T11:37:50.702Z,100500.34
2019-03-18T11:40:24.818Z,100493.84
2019-03-18T11:43:06.393Z,100506.02
2019-03-18T11:45:40.861Z,100503.31
2019-03-18T11:48:16.989Z,100505.22
2019-03-18T11:50:48.075Z,100500.56
2019-03-18T11:53:22.152Z,100513.31
2019-03-18T11:55:54.107Z,100504.88
2019-03-18T11:58:27.984Z,100506.56
2019-03-18T12:01:00.149Z,100518.94
2019-03-18T12:03:34.510Z,100519.64
2019-03-18T12:06:07.448Z,100523.78
2019-03-18T12:08:50.454Z,100515.53
2019-03-18T12:11:26.394Z,100520.98
2019-03-18T12:14:00.426Z,100525.52
2019-03-18T12:16:33.056Z,100510.66
2019-03-18T12:19:10.791Z,100520.00
2019-03-18T12:21:43.581Z,100517.34
2019-03-18T12:24:16.108Z,100506.29
2019-03-18T12:27:00.268Z,100502.14
2019-03-18T12:34:11.270Z,100506.59
2019-03-18T12:43:14.536Z,100503.55
2019-03-18T13:19:10.729Z,100512.05
2019-03-18T13:26:24.091Z,100504.09
2019-03-18T13:32:02.952Z,100508.95
2019-03-18T14:08:08.921Z,100515.46
2019-03-18T14:18:52.150Z,100535.71
2019-03-18T14:37:41.769Z,100529.52
2019-03-18T14:38:26.700Z,100516.52
2019-03-18T14:45:33.269Z,100514.44
2019-03-18T14:57:18.685Z,100505.81
2019-03-18T15:50:32.488Z,100634.61
2019-03-18T15:52:39.537Z,100654.20
